Agios Georgios I — SX9857 — position and weather

sailwx.info

Track history (hours):
 
Tides and Currents Weather Stations Pressure Air Temp Water Temp Dewpoint Dewpoint Depression Visibility Wind Speed Wind Dir Waves Ship Positions

Agios Georgios I

Last reported at 2016-Jun-28 22:09 UTC. Time now 2016-Jun-29 11:09 UTC.
Position N 37°35' E 025°36'.

Length 59 m; draft 5 m.

Type: Ship (hazmat cat B). MMSI: 239912000.

Date/timePositionNaut miles runAvg speedWind from/ knotsBaromVisibWave heightAir tempDewpointWater temp
2016-Jun-28 22:09N 37°35' E 025°36'5 8.6
2016-Jun-28 21:33N 37°33' E 025°30'9 8.1
2016-Jun-28 20:28N 37°31' E 025°19'7 7.5
2016-Jun-28 19:33N 37°29' E 025°11'45 2.5
2016-Jun-28 01:33N 37°31' E 024°15'11 8.1
2016-Jun-28 00:09N 37°34' E 024°01'5 8.6
2016-Jun-27 23:33N 37°36' E 023°55'9 8.7
2016-Jun-27 22:33N 37°39' E 023°44'8 8.4
2016-Jun-27 21:33N 37°46' E 023°39'8 8.4
2016-Jun-27 20:33N 37°54' E 023°35'3 3.4
2016-Jun-27 19:33N 37°57' E 023°35'0 0.0
2016-Jun-27 18:33N 37°57' E 023°35'0 0.0
2016-Jun-27 17:33N 37°57' E 023°35'0 0.0
2016-Jun-27 16:33N 37°57' E 023°35'0 0.0
2016-Jun-27 15:33N 37°57' E 023°35'0 0.5
2016-Jun-27 14:33N 37°57' E 023°35'8 7.9
2016-Jun-27 13:33N 37°50' E 023°30'8 8.2
2016-Jun-27 12:33N 37°52' E 023°20'8 8.2
2016-Jun-27 11:33N 37°54' E 023°10'4 3.8
2016-Jun-27 10:33N 37°55' E 023°05'0 0.0
2016-Jun-27 09:33N 37°55' E 023°05'0 0.0
2016-Jun-27 08:33N 37°55' E 023°05'0 0.0
2016-Jun-27 07:33N 37°55' E 023°05'0 0.0
2016-Jun-27 06:33N 37°55' E 023°05'0 0.0
2016-Jun-27 05:33N 37°55' E 023°05'0 0.0
2016-Jun-27 04:33N 37°55' E 023°05'0 0.0
2016-Jun-27 03:33N 37°55' E 023°05'0 0.0
2016-Jun-27 02:33N 37°55' E 023°05'0 0.0
2016-Jun-27 01:33N 37°55' E 023°05'0 0.0
2016-Jun-27 00:33N 37°55' E 023°05'0 0.0
2016-Jun-26 23:33N 37°55' E 023°05'0 0.0
2016-Jun-26 22:33N 37°55' E 023°05'0 0.0
2016-Jun-26 21:33N 37°55' E 023°05'0 0.0
2016-Jun-26 20:33N 37°55' E 023°05'0 0.0
2016-Jun-26 19:32N 37°55' E 023°05'0 0.0
2016-Jun-26 18:33N 37°55' E 023°05'0 0.0
2016-Jun-26 17:33N 37°55' E 023°05'0 0.0
2016-Jun-26 16:33N 37°55' E 023°05'0 0.0
2016-Jun-26 15:33N 37°55' E 023°05'0 0.0
2016-Jun-26 14:33N 37°55' E 023°05'0 0.0
2016-Jun-26 13:32N 37°55' E 023°05'0 0.0
2016-Jun-26 12:33N 37°55' E 023°05'0 0.0
2016-Jun-26 11:33N 37°55' E 023°05'0 0.0
2016-Jun-26 10:33N 37°55' E 023°05'0 0.0
2016-Jun-26 09:33N 37°55' E 023°05'0 0.0
2016-Jun-26 08:33N 37°55' E 023°05'0 0.0
2016-Jun-26 07:32N 37°55' E 023°05'0 0.0
2016-Jun-26 06:33N 37°55' E 023°05'0 0.0
2016-Jun-26 05:33N 37°55' E 023°05'0 0.0
2016-Jun-26 04:33N 37°55' E 023°05'0 0.0
2016-Jun-26 03:33N 37°55' E 023°05'0 0.0
2016-Jun-26 02:31N 37°55' E 023°05'1 0.8
2016-Jun-26 01:33N 37°55' E 023°06'0 0.0
2016-Jun-26 00:33N 37°55' E 023°06'0 0.0
2016-Jun-25 23:33N 37°55' E 023°06'0 0.0
2016-Jun-25 22:33N 37°55' E 023°06'0 0.0
2016-Jun-25 21:33N 37°55' E 023°06'0 0.0
2016-Jun-25 20:33N 37°55' E 023°06'0 0.1
2016-Jun-25 19:33N 37°55' E 023°06'0 0.0
2016-Jun-25 18:33N 37°55' E 023°06'0 0.0
2016-Jun-25 17:33N 37°55' E 023°06'0 0.0
2016-Jun-25 16:33N 37°55' E 023°06'0 0.0
2016-Jun-25 15:33N 37°55' E 023°06'0 0.0
2016-Jun-25 14:33N 37°55' E 023°06'0 0.1
2016-Jun-25 13:32N 37°55' E 023°06'0 0.0
2016-Jun-25 12:33N 37°55' E 023°06'0 0.0
2016-Jun-25 11:33N 37°55' E 023°06'0 0.0
2016-Jun-25 10:33N 37°55' E 023°06'0 0.0
2016-Jun-25 09:32N 37°55' E 023°06'0 0.0
2016-Jun-25 08:33N 37°55' E 023°06'0 0.0
2016-Jun-25 07:33N 37°55' E 023°06'0 0.0
2016-Jun-25 06:33N 37°55' E 023°06'0 0.0
2016-Jun-25 05:33N 37°55' E 023°06'0 0.0
2016-Jun-25 04:33N 37°55' E 023°06'0 0.0
2016-Jun-25 03:33N 37°55' E 023°06'0 0.0
2016-Jun-25 02:33N 37°55' E 023°06'0 0.0
2016-Jun-25 01:33N 37°55' E 023°06'0 0.1
2016-Jun-25 00:33N 37°55' E 023°06'0 0.1
2016-Jun-24 23:24N 37°55' E 023°06'3 3.1
2016-Jun-24 22:33N 37°54' E 023°09'9 9.0
2016-Jun-24 21:33N 37°52' E 023°20'9 9.1
2016-Jun-24 20:33N 37°50' E 023°32'8 7.8
2016-Jun-24 19:33N 37°47' E 023°41'9 8.9
2016-Jun-24 18:33N 37°40' E 023°46'9 8.9
2016-Jun-24 17:33N 37°33' E 023°54'51 8.5
2016-Jun-24 11:31N 37°10' E 024°51'8 8.2
2016-Jun-24 10:33N 37°07' E 025°01'5 0.7
2016-Jun-24 03:11N 37°05' E 025°07'12 0.4
2016-Jun-22 20:30N 36°59' E 025°19'7 7.4
2016-Jun-22 19:33N 37°06' E 025°21'1 0.9
2016-Jun-22 18:33N 37°06' E 025°22'0 0.0
2016-Jun-22 17:33N 37°06' E 025°22'0 0.0
2016-Jun-22 16:33N 37°06' E 025°22'0 0.0
2016-Jun-22 15:33N 37°06' E 025°22'0 0.5
2016-Jun-22 14:34N 37°06' E 025°22'0 0.5
2016-Jun-22 13:33N 37°06' E 025°22'8 7.5
2016-Jun-22 12:33N 37°12' E 025°16'8 7.7
2016-Jun-22 11:32N 37°17' E 025°09'36 3.8
2016-Jun-22 02:06N 37°48' E 024°44'4 8.0
2016-Jun-22 01:33N 37°52' E 024°42'  
Track history (hours):
 
Tides and Currents Weather Stations Pressure Air Temp Water Temp Dewpoint Dewpoint Depression Visibility Wind Speed Wind Dir Waves Ship Positions

Agios Georgios I

Last reported at 2016-Jun-28 22:09 UTC. Time now 2016-Jun-29 11:09 UTC.
Position N 37°35' E 025°36'.

Length 59 m; draft 5 m.

Type: Ship (hazmat cat B). MMSI: 239912000.

Date/timePositionNaut miles runAvg speedWind from/ knotsBaromVisibWave heightAir tempDewpointWater temp
2016-Jun-28 22:09N 37°35' E 025°36'5 8.6
2016-Jun-28 21:33N 37°33' E 025°30'9 8.1
2016-Jun-28 20:28N 37°31' E 025°19'7 7.5
2016-Jun-28 19:33N 37°29' E 025°11'45 2.5
2016-Jun-28 01:33N 37°31' E 024°15'11 8.1
2016-Jun-28 00:09N 37°34' E 024°01'5 8.6
2016-Jun-27 23:33N 37°36' E 023°55'9 8.7
2016-Jun-27 22:33N 37°39' E 023°44'8 8.4
2016-Jun-27 21:33N 37°46' E 023°39'8 8.4
2016-Jun-27 20:33N 37°54' E 023°35'3 3.4
2016-Jun-27 19:33N 37°57' E 023°35'0 0.0
2016-Jun-27 18:33N 37°57' E 023°35'0 0.0
2016-Jun-27 17:33N 37°57' E 023°35'0 0.0
2016-Jun-27 16:33N 37°57' E 023°35'0 0.0
2016-Jun-27 15:33N 37°57' E 023°35'0 0.5
2016-Jun-27 14:33N 37°57' E 023°35'8 7.9
2016-Jun-27 13:33N 37°50' E 023°30'8 8.2
2016-Jun-27 12:33N 37°52' E 023°20'8 8.2
2016-Jun-27 11:33N 37°54' E 023°10'4 3.8
2016-Jun-27 10:33N 37°55' E 023°05'0 0.0
2016-Jun-27 09:33N 37°55' E 023°05'0 0.0
2016-Jun-27 08:33N 37°55' E 023°05'0 0.0
2016-Jun-27 07:33N 37°55' E 023°05'0 0.0
2016-Jun-27 06:33N 37°55' E 023°05'0 0.0
2016-Jun-27 05:33N 37°55' E 023°05'0 0.0
2016-Jun-27 04:33N 37°55' E 023°05'0 0.0
2016-Jun-27 03:33N 37°55' E 023°05'0 0.0
2016-Jun-27 02:33N 37°55' E 023°05'0 0.0
2016-Jun-27 01:33N 37°55' E 023°05'0 0.0
2016-Jun-27 00:33N 37°55' E 023°05'0 0.0
2016-Jun-26 23:33N 37°55' E 023°05'0 0.0
2016-Jun-26 22:33N 37°55' E 023°05'0 0.0
2016-Jun-26 21:33N 37°55' E 023°05'0 0.0
2016-Jun-26 20:33N 37°55' E 023°05'0 0.0
2016-Jun-26 19:32N 37°55' E 023°05'0 0.0
2016-Jun-26 18:33N 37°55' E 023°05'0 0.0
2016-Jun-26 17:33N 37°55' E 023°05'0 0.0
2016-Jun-26 16:33N 37°55' E 023°05'0 0.0
2016-Jun-26 15:33N 37°55' E 023°05'0 0.0
2016-Jun-26 14:33N 37°55' E 023°05'0 0.0
2016-Jun-26 13:32N 37°55' E 023°05'0 0.0
2016-Jun-26 12:33N 37°55' E 023°05'0 0.0
2016-Jun-26 11:33N 37°55' E 023°05'0 0.0
2016-Jun-26 10:33N 37°55' E 023°05'0 0.0
2016-Jun-26 09:33N 37°55' E 023°05'0 0.0
2016-Jun-26 08:33N 37°55' E 023°05'0 0.0
2016-Jun-26 07:32N 37°55' E 023°05'0 0.0
2016-Jun-26 06:33N 37°55' E 023°05'0 0.0
2016-Jun-26 05:33N 37°55' E 023°05'0 0.0
2016-Jun-26 04:33N 37°55' E 023°05'0 0.0
2016-Jun-26 03:33N 37°55' E 023°05'0 0.0
2016-Jun-26 02:31N 37°55' E 023°05'1 0.8
2016-Jun-26 01:33N 37°55' E 023°06'0 0.0
2016-Jun-26 00:33N 37°55' E 023°06'0 0.0
2016-Jun-25 23:33N 37°55' E 023°06'0 0.0
2016-Jun-25 22:33N 37°55' E 023°06'0 0.0
2016-Jun-25 21:33N 37°55' E 023°06'0 0.0
2016-Jun-25 20:33N 37°55' E 023°06'0 0.1
2016-Jun-25 19:33N 37°55' E 023°06'0 0.0
2016-Jun-25 18:33N 37°55' E 023°06'0 0.0
2016-Jun-25 17:33N 37°55' E 023°06'0 0.0
2016-Jun-25 16:33N 37°55' E 023°06'0 0.0
2016-Jun-25 15:33N 37°55' E 023°06'0 0.0
2016-Jun-25 14:33N 37°55' E 023°06'0 0.1
2016-Jun-25 13:32N 37°55' E 023°06'0 0.0
2016-Jun-25 12:33N 37°55' E 023°06'0 0.0
2016-Jun-25 11:33N 37°55' E 023°06'0 0.0
2016-Jun-25 10:33N 37°55' E 023°06'0 0.0
2016-Jun-25 09:32N 37°55' E 023°06'0 0.0
2016-Jun-25 08:33N 37°55' E 023°06'0 0.0
2016-Jun-25 07:33N 37°55' E 023°06'0 0.0
2016-Jun-25 06:33N 37°55' E 023°06'0 0.0
2016-Jun-25 05:33N 37°55' E 023°06'0 0.0
2016-Jun-25 04:33N 37°55' E 023°06'0 0.0
2016-Jun-25 03:33N 37°55' E 023°06'0 0.0
2016-Jun-25 02:33N 37°55' E 023°06'0 0.0
2016-Jun-25 01:33N 37°55' E 023°06'0 0.1
2016-Jun-25 00:33N 37°55' E 023°06'0 0.1
2016-Jun-24 23:24N 37°55' E 023°06'3 3.1
2016-Jun-24 22:33N 37°54' E 023°09'9 9.0
2016-Jun-24 21:33N 37°52' E 023°20'9 9.1
2016-Jun-24 20:33N 37°50' E 023°32'8 7.8
2016-Jun-24 19:33N 37°47' E 023°41'9 8.9
2016-Jun-24 18:33N 37°40' E 023°46'9 8.9
2016-Jun-24 17:33N 37°33' E 023°54'51 8.5
2016-Jun-24 11:31N 37°10' E 024°51'8 8.2
2016-Jun-24 10:33N 37°07' E 025°01'5 0.7
2016-Jun-24 03:11N 37°05' E 025°07'12 0.4
2016-Jun-22 20:30N 36°59' E 025°19'7 7.4
2016-Jun-22 19:33N 37°06' E 025°21'1 0.9
2016-Jun-22 18:33N 37°06' E 025°22'0 0.0
2016-Jun-22 17:33N 37°06' E 025°22'0 0.0
2016-Jun-22 16:33N 37°06' E 025°22'0 0.0
2016-Jun-22 15:33N 37°06' E 025°22'0 0.5
2016-Jun-22 14:34N 37°06' E 025°22'0 0.5
2016-Jun-22 13:33N 37°06' E 025°22'8 7.5
2016-Jun-22 12:33N 37°12' E 025°16'8 7.7
2016-Jun-22 11:32N 37°17' E 025°09'36 3.8
2016-Jun-22 02:06N 37°48' E 024°44'4 8.0
2016-Jun-22 01:33N 37°52' E 024°42'  

Dump ship's entire track history